createdAt,value
2023-12-02T00:00:40.410Z,50.50
2023-12-02T00:03:08.345Z,50.50
2023-12-02T00:05:36.258Z,50.50
2023-12-02T00:08:04.213Z,50.60
2023-12-02T00:10:32.054Z,50.60
2023-12-02T00:13:00.178Z,50.60
2023-12-02T00:15:28.051Z,50.60
2023-12-02T00:17:57.442Z,50.60
2023-12-02T00:20:25.469Z,50.50
2023-12-02T00:22:53.308Z,50.50
2023-12-02T00:25:21.125Z,50.50
2023-12-02T00:27:48.961Z,50.50
2023-12-02T00:30:17.017Z,50.50
2023-12-02T00:32:44.921Z,50.50
2023-12-02T00:35:14.383Z,50.40
2023-12-02T00:37:43.084Z,50.40
2023-12-02T00:40:11.794Z,50.50
2023-12-02T00:42:39.637Z,50.50
2023-12-02T00:45:08.413Z,50.50
2023-12-02T00:47:36.388Z,50.50
2023-12-02T00:50:04.525Z,50.50
2023-12-02T00:52:33.765Z,50.50
2023-12-02T00:55:01.917Z,50.50
2023-12-02T00:57:29.916Z,50.60
2023-12-02T00:59:57.960Z,50.60
2023-12-02T01:02:25.830Z,50.60
2023-12-02T01:04:53.961Z,50.60
2023-12-02T01:07:21.915Z,50.70
2023-12-02T01:09:51.090Z,50.70
2023-12-02T01:12:19.125Z,50.70
2023-12-02T01:14:47.155Z,50.60
2023-12-02T01:17:15.495Z,50.60
2023-12-02T01:19:43.398Z,50.60
2023-12-02T01:22:11.280Z,50.70
2023-12-02T01:24:39.100Z,50.70
2023-12-02T01:27:08.418Z,50.60
2023-12-02T01:29:36.902Z,50.50
2023-12-02T01:32:05.483Z,50.60
2023-12-02T01:34:33.737Z,50.60
2023-12-02T01:37:01.620Z,50.60
2023-12-02T01:39:29.481Z,50.70
2023-12-02T01:41:57.511Z,50.70
2023-12-02T01:44:26.834Z,50.70
2023-12-02T01:46:54.892Z,50.70
2023-12-02T01:49:23.995Z,50.70
2023-12-02T01:51:52.676Z,50.80
2023-12-02T01:54:21.248Z,50.90
2023-12-02T01:56:49.177Z,50.90
2023-12-02T01:59:17.301Z,50.80
2023-12-02T02:01:46.578Z,50.90
2023-12-02T02:04:14.495Z,50.90
2023-12-02T02:06:42.460Z,50.90
2023-12-02T02:09:10.445Z,50.80
2023-12-02T02:11:38.420Z,50.80
2023-12-02T02:14:06.247Z,50.80
2023-12-02T02:16:34.328Z,50.80
2023-12-02T02:19:03.591Z,50.70
2023-12-02T02:21:32.914Z,50.70
2023-12-02T02:24:01.083Z,50.70
2023-12-02T02:26:29.070Z,50.70
2023-12-02T02:28:56.924Z,50.70
2023-12-02T02:31:24.784Z,50.70
2023-12-02T02:33:52.632Z,50.70
2023-12-02T02:36:20.560Z,50.70
2023-12-02T02:38:49.774Z,50.80
2023-12-02T02:41:17.795Z,50.80
2023-12-02T02:43:45.915Z,50.80
2023-12-02T02:46:15.441Z,50.90
2023-12-02T02:48:43.361Z,50.90
2023-12-02T02:51:11.401Z,50.90
2023-12-02T02:53:39.287Z,50.90
2023-12-02T02:56:10.259Z,50.90
2023-12-02T02:58:38.347Z,50.90
2023-12-02T03:01:06.547Z,50.80
2023-12-02T03:03:34.780Z,50.80
2023-12-02T03:06:02.643Z,50.80
2023-12-02T03:08:30.736Z,50.70
2023-12-02T03:10:58.596Z,50.70
2023-12-02T03:13:27.787Z,50.70
2023-12-02T03:15:55.629Z,50.60
2023-12-02T03:18:23.797Z,50.70
2023-12-02T03:20:51.842Z,50.70
2023-12-02T03:23:19.665Z,50.70
2023-12-02T03:25:47.499Z,50.80
2023-12-02T03:28:15.413Z,50.80
2023-12-02T03:30:44.569Z,50.70
2023-12-02T03:33:12.531Z,50.80
2023-12-02T03:35:41.730Z,50.90
2023-12-02T03:38:09.612Z,50.90
2023-12-02T03:40:37.548Z,50.90
2023-12-02T03:43:05.555Z,50.90
2023-12-02T03:45:33.471Z,50.80
2023-12-02T03:48:02.886Z,50.80
2023-12-02T03:50:30.768Z,50.80
2023-12-02T03:52:59.992Z,50.80
2023-12-02T03:55:29.866Z,50.80
2023-12-02T03:57:57.721Z,50.70
2023-12-02T04:00:25.692Z,50.80
2023-12-02T04:02:53.616Z,50.70
2023-12-02T04:05:22.911Z,50.70
2023-12-02T04:07:50.892Z,50.70
2023-12-02T04:10:18.846Z,50.70
2023-12-02T04:12:47.694Z,50.70
2023-12-02T04:15:15.993Z,50.80
2023-12-02T04:17:44.268Z,50.80
2023-12-02T04:20:16.249Z,50.80
2023-12-02T04:22:45.493Z,50.80
2023-12-02T04:25:13.362Z,50.80
2023-12-02T04:27:42.288Z,50.90
2023-12-02T04:30:10.850Z,50.90
2023-12-02T04:32:38.787Z,50.90
2023-12-02T04:35:07.592Z,50.90
2023-12-02T04:37:35.475Z,50.90
2023-12-02T04:40:10.892Z,50.80
2023-12-02T04:42:39.472Z,50.80
2023-12-02T04:45:09.160Z,50.80
2023-12-02T04:47:37.704Z,50.80
2023-12-02T04:50:06.292Z,51.40
2023-12-02T04:52:34.422Z,50.70
2023-12-02T04:55:02.272Z,50.80
2023-12-02T04:57:32.176Z,50.80
2023-12-02T05:00:00.233Z,50.70
2023-12-02T05:02:28.291Z,50.50
2023-12-02T05:04:56.492Z,50.20
2023-12-02T05:07:25.099Z,49.90
2023-12-02T05:09:53.018Z,49.70
2023-12-02T05:12:20.919Z,49.50
2023-12-02T05:14:50.091Z,49.40
2023-12-02T05:17:18.590Z,49.20
2023-12-02T05:19:48.064Z,49.10
2023-12-02T05:22:16.684Z,49.00
2023-12-02T05:24:44.572Z,48.90
2023-12-02T05:27:12.483Z,48.90
2023-12-02T05:29:40.360Z,48.90
2023-12-02T05:32:09.858Z,48.80
2023-12-02T05:34:37.751Z,48.80
2023-12-02T05:37:06.353Z,48.80
2023-12-02T05:39:36.208Z,48.70
2023-12-02T05:42:04.702Z,48.70
2023-12-02T05:44:32.635Z,48.70
2023-12-02T05:47:00.708Z,48.70
2023-12-02T05:49:29.974Z,48.60
2023-12-02T05:51:58.002Z,48.00
2023-12-02T05:54:26.079Z,49.30
2023-12-02T05:56:56.301Z,48.70
2023-12-02T05:59:24.158Z,51.00
2023-12-02T06:01:52.578Z,49.50
2023-12-02T06:04:20.548Z,49.80
2023-12-02T06:06:50.343Z,49.70
2023-12-02T06:09:18.323Z,47.00
2023-12-02T06:11:46.205Z,47.00
2023-12-02T06:14:14.137Z,48.60
2023-12-02T06:16:41.998Z,48.60
2023-12-02T06:19:10.632Z,48.30
2023-12-02T06:21:38.710Z,48.30
2023-12-02T06:24:08.820Z,48.40
2023-12-02T06:26:36.805Z,48.20
2023-12-02T06:29:05.279Z,48.30
2023-12-02T06:31:34.257Z,48.30
2023-12-02T06:34:02.108Z,46.50
2023-12-02T06:36:30.287Z,47.00
2023-12-02T06:39:00.671Z,49.20
2023-12-02T06:41:30.225Z,49.00
2023-12-02T06:43:58.099Z,49.00
2023-12-02T06:46:26.140Z,49.00
2023-12-02T06:48:54.402Z,48.90
2023-12-02T06:51:25.351Z,48.90
2023-12-02T06:53:53.372Z,49.00
2023-12-02T06:56:23.079Z,48.90
2023-12-02T06:58:53.239Z,48.90
2023-12-02T07:01:25.576Z,49.00
2023-12-02T07:03:53.517Z,48.90
2023-12-02T07:06:21.972Z,48.90
2023-12-02T07:08:50.056Z,48.90
2023-12-02T07:11:18.825Z,49.10
2023-12-02T07:13:46.817Z,49.30
2023-12-02T07:16:16.230Z,49.40
2023-12-02T07:18:44.292Z,49.40
2023-12-02T07:21:12.280Z,49.40
2023-12-02T07:23:40.158Z,50.10
2023-12-02T07:26:08.446Z,48.00
2023-12-02T07:28:36.330Z,47.00
2023-12-02T07:31:04.348Z,47.80
2023-12-02T07:33:33.596Z,50.40
2023-12-02T07:36:01.511Z,48.70
2023-12-02T07:38:29.433Z,48.10
2023-12-02T07:40:57.329Z,47.10
2023-12-02T07:43:25.211Z,47.30
2023-12-02T07:45:53.129Z,47.30
2023-12-02T07:48:21.053Z,47.40
2023-12-02T07:50:50.334Z,47.40
2023-12-02T07:53:18.469Z,47.30
2023-12-02T07:55:47.421Z,47.20
2023-12-02T07:58:15.505Z,47.40
2023-12-02T08:00:43.604Z,47.20
2023-12-02T08:03:11.433Z,47.30
2023-12-02T08:08:11.988Z,47.00
2023-12-02T08:10:39.897Z,47.00
2023-12-02T08:13:07.759Z,46.90
2023-12-02T08:15:35.985Z,46.90
2023-12-02T08:18:04.167Z,47.40
2023-12-02T08:20:32.283Z,46.70
2023-12-02T08:23:00.386Z,46.60
2023-12-02T08:25:30.012Z,46.60
2023-12-02T08:27:58.746Z,46.70
2023-12-02T08:30:26.742Z,46.60
2023-12-02T08:32:54.687Z,46.40
2023-12-02T08:35:24.933Z,46.20
2023-12-02T08:37:52.822Z,46.10
2023-12-02T08:40:21.199Z,45.80
2023-12-02T08:42:50.526Z,45.80
2023-12-02T08:45:18.481Z,45.80
2023-12-02T08:47:46.464Z,45.70
2023-12-02T08:50:14.709Z,45.60
2023-12-02T08:52:42.655Z,45.60
2023-12-02T08:55:14.648Z,45.40
2023-12-02T08:57:43.158Z,45.30
2023-12-02T09:00:13.840Z,45.30
2023-12-02T09:02:41.737Z,45.30
2023-12-02T09:05:10.079Z,45.60
2023-12-02T09:07:38.054Z,48.00
2023-12-02T09:10:07.019Z,47.40
2023-12-02T09:12:35.131Z,47.70
2023-12-02T09:15:09.150Z,47.80
2023-12-02T09:18:10.189Z,47.90
2023-12-02T09:20:45.075Z,47.90
2023-12-02T09:23:13.267Z,47.90
2023-12-02T09:25:42.400Z,47.70
2023-12-02T09:28:14.766Z,47.80
2023-12-02T09:30:47.069Z,47.70
2023-12-02T09:33:17.748Z,48.00
2023-12-02T09:35:45.897Z,48.50
2023-12-02T09:38:17.586Z,48.60
2023-12-02T09:41:05.381Z,48.70
2023-12-02T09:43:36.097Z,46.20
2023-12-02T09:46:31.051Z,46.90
2023-12-02T09:49:37.612Z,46.80
2023-12-02T09:52:26.036Z,47.00
2023-12-02T09:55:00.900Z,47.10
2023-12-02T09:57:35.983Z,47.30
2023-12-02T10:00:11.119Z,47.60
2023-12-02T10:02:53.982Z,47.80
2023-12-02T10:05:23.676Z,48.00
2023-12-02T10:08:07.814Z,48.20
2023-12-02T10:10:46.109Z,48.50
2023-12-02T10:13:21.883Z,48.60
2023-12-02T10:15:51.633Z,48.60
2023-12-02T10:18:30.235Z,48.60
2023-12-02T10:21:04.479Z,48.50
2023-12-02T10:23:38.621Z,48.50
2023-12-02T10:26:10.732Z,48.60
2023-12-02T10:28:49.276Z,48.60
2023-12-02T10:31:25.002Z,48.20
2023-12-02T10:34:04.559Z,46.90
2023-12-02T10:36:35.807Z,47.90
2023-12-02T10:39:13.995Z,47.80
2023-12-02T10:41:52.442Z,47.80
2023-12-02T10:44:23.499Z,47.90
2023-12-02T10:46:51.840Z,48.10
2023-12-02T10:49:20.270Z,48.20
2023-12-02T10:54:26.361Z,48.60
2023-12-02T10:57:07.450Z,48.70
2023-12-02T10:59:40.924Z,47.30
2023-12-02T11:02:26.711Z,42.60
2023-12-02T11:05:09.887Z,45.30
2023-12-02T11:07:41.521Z,45.10
2023-12-02T11:10:14.383Z,44.90
2023-12-02T11:12:50.284Z,44.80
2023-12-02T11:15:23.384Z,44.70
2023-12-02T11:17:59.133Z,44.80
2023-12-02T11:20:35.248Z,44.70
2023-12-02T11:23:31.236Z,44.70
2023-12-02T11:26:12.608Z,44.60
2023-12-02T11:28:54.636Z,44.40
2023-12-02T11:31:34.680Z,44.30
2023-12-02T11:34:10.932Z,44.10
2023-12-02T11:36:52.881Z,44.20
2023-12-02T11:39:36.421Z,44.60
2023-12-02T11:42:14.041Z,43.20
2023-12-02T11:44:59.692Z,43.90
2023-12-02T11:47:41.214Z,44.60
2023-12-02T11:50:24.658Z,44.80
2023-12-02T11:53:08.214Z,44.70
2023-12-02T11:55:45.066Z,44.70
2023-12-02T11:58:24.695Z,44.70
2023-12-02T12:01:08.842Z,44.70
2023-12-02T12:03:47.971Z,44.90
2023-12-02T12:06:27.452Z,45.00
2023-12-02T12:09:06.372Z,45.00
2023-12-02T12:11:37.794Z,45.20
2023-12-02T12:14:08.513Z,45.10
2023-12-02T12:16:42.741Z,45.10
2023-12-02T12:19:11.662Z,44.90
2023-12-02T12:21:41.074Z,44.80
2023-12-02T12:24:09.781Z,44.80
2023-12-02T12:26:39.699Z,44.70
2023-12-02T12:29:07.792Z,44.80
2023-12-02T12:31:37.203Z,44.70
2023-12-02T12:34:06.309Z,44.70
2023-12-02T12:36:34.432Z,44.50
2023-12-02T12:39:02.603Z,44.40
2023-12-02T12:41:31.810Z,44.50
2023-12-02T12:44:04.807Z,44.60
2023-12-02T12:46:35.902Z,44.70
2023-12-02T12:49:07.502Z,44.70
2023-12-02T12:51:37.877Z,44.70
2023-12-02T12:54:10.478Z,44.70
2023-12-02T12:56:48.957Z,44.80
2023-12-02T12:59:20.545Z,45.00
2023-12-02T13:01:58.762Z,45.20
2023-12-02T13:04:33.156Z,45.30
2023-12-02T13:07:07.008Z,45.40
2023-12-02T13:09:35.301Z,45.50
2023-12-02T13:12:14.681Z,45.60
2023-12-02T13:14:48.769Z,45.70
2023-12-02T13:17:20.310Z,45.80
2023-12-02T13:19:49.483Z,42.30
2023-12-02T13:22:18.961Z,43.70
2023-12-02T13:24:53.249Z,44.10
2023-12-02T13:27:31.449Z,44.30
2023-12-02T13:30:05.592Z,44.40
2023-12-02T13:32:37.563Z,44.40
2023-12-02T13:35:07.590Z,44.40
2023-12-02T13:37:41.218Z,44.50
2023-12-02T13:40:12.254Z,44.50
2023-12-02T13:42:41.922Z,44.80
2023-12-02T13:45:20.732Z,44.70
2023-12-02T13:48:03.796Z,44.90
2023-12-02T13:50:40.562Z,44.90
2023-12-02T13:53:20.038Z,45.00
2023-12-02T13:56:00.357Z,45.10
2023-12-02T13:58:39.297Z,45.20
2023-12-02T14:01:16.301Z,46.10
2023-12-02T14:04:02.042Z,44.40
2023-12-02T14:06:40.806Z,45.60
2023-12-02T14:09:10.624Z,45.70
2023-12-02T14:12:00.458Z,45.70
2023-12-02T14:14:49.852Z,45.70
2023-12-02T14:17:33.722Z,44.20
2023-12-02T14:20:19.649Z,44.50
2023-12-02T14:23:17.280Z,44.50
2023-12-02T14:26:05.079Z,45.00
2023-12-02T14:28:47.777Z,45.10
2023-12-02T14:31:41.159Z,45.10
2023-12-02T14:34:45.588Z,45.20
2023-12-02T14:37:46.605Z,45.20
2023-12-02T14:40:30.163Z,45.00
2023-12-02T14:43:11.832Z,45.10
2023-12-02T14:45:40.294Z,45.20
2023-12-02T14:48:15.021Z,45.30
2023-12-02T14:50:46.253Z,45.20
2023-12-02T14:53:18.312Z,45.80
2023-12-02T14:55:46.314Z,45.30
2023-12-02T14:58:25.807Z,45.20
2023-12-02T15:00:58.400Z,45.30
2023-12-02T15:03:30.874Z,45.30
2023-12-02T15:06:06.503Z,45.30
2023-12-02T15:08:40.099Z,45.40
2023-12-02T15:11:10.764Z,45.40
2023-12-02T15:13:39.374Z,56.40
2023-12-02T15:16:08.391Z,56.20
2023-12-02T15:18:39.484Z,55.90
2023-12-02T15:21:10.283Z,52.20
2023-12-02T15:23:50.470Z,51.00
2023-12-02T15:26:21.942Z,51.20
2023-12-02T15:28:55.717Z,51.00
2023-12-02T15:31:40.954Z,50.90
2023-12-02T15:34:11.985Z,50.70
2023-12-02T15:36:43.085Z,50.60
2023-12-02T15:39:14.357Z,50.40
2023-12-02T15:41:44.644Z,50.30
2023-12-02T15:44:13.595Z,50.10
2023-12-02T15:46:41.494Z,50.10
2023-12-02T15:49:10.602Z,49.90
2023-12-02T15:51:38.803Z,49.90
2023-12-02T15:54:12.004Z,49.80
2023-12-02T15:56:41.168Z,50.30
2023-12-02T15:59:12.446Z,48.50
2023-12-02T16:01:47.319Z,49.90
2023-12-02T16:04:19.042Z,49.60
2023-12-02T16:06:49.870Z,49.40
2023-12-02T16:09:34.892Z,49.40
2023-12-02T16:12:05.580Z,49.10
2023-12-02T16:14:34.433Z,49.00
2023-12-02T16:17:09.363Z,49.00
2023-12-02T16:19:37.480Z,48.70
2023-12-02T16:22:06.236Z,48.80
2023-12-02T16:24:35.542Z,48.60
2023-12-02T16:27:03.442Z,48.60
2023-12-02T16:29:31.846Z,48.50
2023-12-02T16:32:02.552Z,48.60
2023-12-02T16:34:33.872Z,48.60
2023-12-02T16:37:04.123Z,48.50
2023-12-02T16:39:33.338Z,48.50
2023-12-02T16:42:02.918Z,53.90
2023-12-02T16:44:31.413Z,51.30
2023-12-02T16:46:59.268Z,47.50
2023-12-02T16:49:27.396Z,49.30
2023-12-02T16:51:57.461Z,49.20
2023-12-02T16:54:33.951Z,49.10
2023-12-02T16:57:03.291Z,49.20
2023-12-02T16:59:50.791Z,49.10
2023-12-02T17:02:31.614Z,49.10
2023-12-02T17:05:00.207Z,49.10
2023-12-02T17:07:30.279Z,49.10
2023-12-02T17:09:59.533Z,49.10
2023-12-02T17:12:29.372Z,49.20
2023-12-02T17:15:06.617Z,49.20
2023-12-02T17:17:36.790Z,49.30
2023-12-02T17:20:14.953Z,49.40
2023-12-02T17:22:43.741Z,49.30
2023-12-02T17:25:47.864Z,49.20
2023-12-02T17:28:17.572Z,49.10
2023-12-02T17:30:46.293Z,49.10
2023-12-02T17:33:17.269Z,49.00
2023-12-02T17:35:45.763Z,49.00
2023-12-02T17:38:13.637Z,48.80
2023-12-02T17:40:41.747Z,51.70
2023-12-02T17:43:09.809Z,50.80
2023-12-02T17:45:39.698Z,50.30
2023-12-02T17:48:10.540Z,50.60
2023-12-02T17:50:39.912Z,50.60
2023-12-02T17:53:07.687Z,50.50
2023-12-02T17:55:35.728Z,50.40
2023-12-02T17:58:04.971Z,50.30
2023-12-02T18:00:32.866Z,50.20
2023-12-02T18:03:02.223Z,50.20
2023-12-02T18:05:30.759Z,50.00
2023-12-02T18:07:59.917Z,50.00
2023-12-02T18:10:28.422Z,49.90
2023-12-02T18:12:56.225Z,49.90
2023-12-02T18:15:24.086Z,49.80
2023-12-02T18:17:58.766Z,49.70
2023-12-02T18:20:28.248Z,49.20
2023-12-02T18:22:56.046Z,49.50
2023-12-02T18:25:27.315Z,50.10
2023-12-02T18:27:55.838Z,50.10
2023-12-02T18:30:26.087Z,49.90
2023-12-02T18:32:54.685Z,49.90
2023-12-02T18:35:24.862Z,49.80
2023-12-02T18:37:55.221Z,49.80
2023-12-02T18:40:26.573Z,49.70
2023-12-02T18:42:55.081Z,49.70
2023-12-02T18:45:23.937Z,49.70
2023-12-02T18:47:52.657Z,49.70
2023-12-02T18:50:21.590Z,49.60
2023-12-02T18:52:50.079Z,49.60
2023-12-02T18:55:19.528Z,49.60
2023-12-02T18:57:48.178Z,49.60
2023-12-02T19:00:16.822Z,49.40
2023-12-02T19:02:44.657Z,49.40
2023-12-02T19:05:14.123Z,49.20
2023-12-02T19:07:42.189Z,49.20
2023-12-02T19:10:10.731Z,49.00
2023-12-02T19:12:40.201Z,48.20
2023-12-02T19:15:08.991Z,45.40
2023-12-02T19:17:36.879Z,46.80
2023-12-02T19:20:05.688Z,46.80
2023-12-02T19:22:33.989Z,46.70
2023-12-02T19:25:02.938Z,46.60
2023-12-02T19:27:33.981Z,46.40
2023-12-02T19:30:05.254Z,46.40
2023-12-02T19:32:33.790Z,46.50
2023-12-02T19:35:02.869Z,46.50
2023-12-02T19:37:30.881Z,46.50
2023-12-02T19:40:00.055Z,46.60
2023-12-02T19:42:27.952Z,51.70
2023-12-02T19:44:55.810Z,53.90
2023-12-02T19:47:27.294Z,52.80
2023-12-02T19:49:55.061Z,53.90
2023-12-02T19:52:23.170Z,53.70
2023-12-02T19:54:51.855Z,53.80
2023-12-02T19:57:22.092Z,53.70
2023-12-02T19:59:54.367Z,53.50
2023-12-02T20:02:24.531Z,53.40
2023-12-02T20:04:53.787Z,53.30
2023-12-02T20:07:21.805Z,53.10
2023-12-02T20:09:49.601Z,53.10
2023-12-02T20:12:17.423Z,53.00
2023-12-02T20:14:46.704Z,52.50
2023-12-02T20:17:18.205Z,52.10
2023-12-02T20:19:48.323Z,52.20
2023-12-02T20:22:17.703Z,52.20
2023-12-02T20:24:46.101Z,52.20
2023-12-02T20:27:14.082Z,52.00
2023-12-02T20:29:42.016Z,51.90
2023-12-02T20:32:09.881Z,51.80
2023-12-02T20:34:38.969Z,51.70
2023-12-02T20:37:06.940Z,51.70
2023-12-02T20:39:38.778Z,51.70
2023-12-02T20:42:07.348Z,51.60
2023-12-02T20:44:35.357Z,51.60
2023-12-02T20:47:03.200Z,51.40
2023-12-02T20:49:33.799Z,51.30
2023-12-02T20:52:01.830Z,51.30
2023-12-02T20:54:47.312Z,51.30
2023-12-02T20:57:25.509Z,51.20
2023-12-02T20:59:53.320Z,51.20
2023-12-02T21:02:22.483Z,51.20
2023-12-02T21:04:50.403Z,51.20
2023-12-02T21:07:18.283Z,51.20
2023-12-02T21:09:46.171Z,51.30
2023-12-02T21:12:16.134Z,51.40
2023-12-02T21:14:45.893Z,51.30
2023-12-02T21:17:13.800Z,51.30
2023-12-02T21:19:41.812Z,51.20
2023-12-02T21:22:10.070Z,51.10
2023-12-02T21:24:37.881Z,51.10
2023-12-02T21:27:06.448Z,51.10
2023-12-02T21:29:35.559Z,51.00
2023-12-02T21:32:06.970Z,51.10
2023-12-02T21:34:35.934Z,51.10
2023-12-02T21:37:05.506Z,51.10
2023-12-02T21:39:35.394Z,51.10
2023-12-02T21:42:03.140Z,51.30
2023-12-02T21:44:31.002Z,51.50
2023-12-02T21:47:04.303Z,51.60
2023-12-02T21:49:32.896Z,51.60
2023-12-02T21:52:00.932Z,51.80
2023-12-02T21:54:28.782Z,51.90
2023-12-02T21:57:00.200Z,51.90
2023-12-02T21:59:30.733Z,52.00
2023-12-02T22:02:00.338Z,52.10
2023-12-02T22:04:41.081Z,52.20
2023-12-02T22:07:14.505Z,52.20
2023-12-02T22:09:42.648Z,52.30
2023-12-02T22:12:32.893Z,52.30
2023-12-02T22:15:02.540Z,52.40
2023-12-02T22:17:32.982Z,52.40
2023-12-02T22:20:01.086Z,52.50
2023-12-02T22:22:54.631Z,60.00
2023-12-02T22:25:23.056Z,53.70
2023-12-02T22:27:58.975Z,53.40
2023-12-02T22:30:27.537Z,54.90
2023-12-02T22:33:00.020Z,55.00
2023-12-02T22:35:29.220Z,58.60
2023-12-02T22:37:58.340Z,56.20
2023-12-02T22:40:35.055Z,54.40
2023-12-02T22:43:06.430Z,55.70
2023-12-02T22:45:37.367Z,56.10
2023-12-02T22:48:16.754Z,56.30
2023-12-02T22:50:45.430Z,56.30
2023-12-02T22:53:30.263Z,56.40
2023-12-02T22:55:59.538Z,56.30
2023-12-02T22:58:28.216Z,56.20
2023-12-02T23:00:57.825Z,56.10
2023-12-02T23:03:28.519Z,55.90
2023-12-02T23:05:59.052Z,55.70
2023-12-02T23:08:29.090Z,55.60
2023-12-02T23:10:57.081Z,55.50
2023-12-02T23:13:51.806Z,55.50
2023-12-02T23:16:36.342Z,55.40
2023-12-02T23:19:07.801Z,55.30
2023-12-02T23:21:36.191Z,55.20
2023-12-02T23:24:05.116Z,55.10
2023-12-02T23:26:34.256Z,55.10
2023-12-02T23:29:02.126Z,55.00
2023-12-02T23:31:30.227Z,54.90
2023-12-02T23:33:58.521Z,54.90
2023-12-02T23:36:29.741Z,54.80
2023-12-02T23:38:59.042Z,54.80
2023-12-02T23:41:27.124Z,54.60
2023-12-02T23:43:55.134Z,54.60
2023-12-02T23:46:26.493Z,54.50
2023-12-02T23:48:55.381Z,54.50
2023-12-02T23:51:23.264Z,54.60
2023-12-02T23:53:53.587Z,54.50
2023-12-02T23:56:23.083Z,54.50
2023-12-02T23:58:52.774Z,54.50
